sensor_id;sensor_type;location;lat;lon;timestamp;P1;durP1;ratioP1;P2;durP2;ratioP2
72785;SDS011;60902;53.876;10.674;2022-08-18T00:00:05;6.60;;;4.45;;
72785;SDS011;60902;53.876;10.674;2022-08-18T00:00:21;6.45;;;4.00;;
72785;SDS011;60902;53.876;10.674;2022-08-18T00:00:32;6.55;;;3.97;;
72785;SDS011;60902;53.876;10.674;2022-08-18T00:00:43;7.13;;;4.38;;
72785;SDS011;60902;53.876;10.674;2022-08-18T00:00:54;9.23;;;4.88;;
72785;SDS011;60902;53.876;10.674;2022-08-18T00:01:08;9.32;;;4.55;;
72785;SDS011;60902;53.876;10.674;2022-08-18T00:01:20;8.75;;;4.53;;
72785;SDS011;60902;53.876;10.674;2022-08-18T00:01:33;6.75;;;4.20;;
72785;SDS011;60902;53.876;10.674;2022-08-18T00:01:45;7.25;;;4.53;;
72785;SDS011;60902;53.876;10.674;2022-08-18T00:02:00;7.35;;;4.55;;
72785;SDS011;60902;53.876;10.674;2022-08-18T00:02:14;7.40;;;4.50;;
72785;SDS011;60902;53.876;10.674;2022-08-18T00:02:28;7.10;;;4.43;;
72785;SDS011;60902;53.876;10.674;2022-08-18T00:02:39;8.23;;;4.70;;
72785;SDS011;60902;53.876;10.674;2022-08-18T00:02:52;8.15;;;4.50;;
72785;SDS011;60902;53.876;10.674;2022-08-18T00:03:06;7.88;;;4.47;;
72785;SDS011;60902;53.876;10.674;2022-08-18T00:03:19;7.50;;;4.65;;
72785;SDS011;60902;53.876;10.674;2022-08-18T00:03:30;8.02;;;4.85;;
72785;SDS011;60902;53.876;10.674;2022-08-18T00:03:41;7.55;;;4.70;;
72785;SDS011;60902;53.876;10.674;2022-08-18T00:03:55;7.35;;;4.40;;
72785;SDS011;60902;53.876;10.674;2022-08-18T00:04:06;7.47;;;4.50;;
72785;SDS011;60902;53.876;10.674;2022-08-18T00:04:17;7.53;;;4.35;;
72785;SDS011;60902;53.876;10.674;2022-08-18T00:04:29;7.13;;;4.30;;
72785;SDS011;60902;53.876;10.674;2022-08-18T00:04:40;7.32;;;4.43;;
72785;SDS011;60902;53.876;10.674;2022-08-18T00:04:52;6.88;;;4.40;;
72785;SDS011;60902;53.876;10.674;2022-08-18T00:05:04;6.60;;;4.05;;
72785;SDS011;60902;53.876;10.674;2022-08-18T00:05:15;6.60;;;3.88;;
72785;SDS011;60902;53.876;10.674;2022-08-18T00:05:27;6.45;;;3.90;;
72785;SDS011;60902;53.876;10.674;2022-08-18T00:05:38;6.47;;;4.18;;
72785;SDS011;60902;53.876;10.674;2022-08-18T00:05:49;6.43;;;4.30;;
72785;SDS011;60902;53.876;10.674;2022-08-18T00:06:00;6.95;;;4.35;;
72785;SDS011;60902;53.876;10.674;2022-08-18T00:06:13;6.80;;;4.32;;
72785;SDS011;60902;53.876;10.674;2022-08-18T00:06:27;6.93;;;4.28;;
72785;SDS011;60902;53.876;10.674;2022-08-18T00:06:38;6.93;;;4.38;;
72785;SDS011;60902;53.876;10.674;2022-08-18T00:06:49;6.80;;;4.30;;
72785;SDS011;60902;53.876;10.674;2022-08-18T00:07:02;6.35;;;4.25;;
72785;SDS011;60902;53.876;10.674;2022-08-18T00:07:14;6.78;;;4.35;;
72785;SDS011;60902;53.876;10.674;2022-08-18T00:07:28;6.78;;;4.28;;
72785;SDS011;60902;53.876;10.674;2022-08-18T00:07:41;7.28;;;4.20;;
72785;SDS011;60902;53.876;10.674;2022-08-18T00:07:52;7.47;;;4.13;;
72785;SDS011;60902;53.876;10.674;2022-08-18T00:08:03;6.78;;;4.22;;
72785;SDS011;60902;53.876;10.674;2022-08-18T00:08:15;6.18;;;4.45;;
72785;SDS011;60902;53.876;10.674;2022-08-18T00:08:27;6.57;;;4.40;;
72785;SDS011;60902;53.876;10.674;2022-08-18T00:08:39;6.60;;;4.15;;
72785;SDS011;60902;53.876;10.674;2022-08-18T00:08:50;6.68;;;4.30;;
72785;SDS011;60902;53.876;10.674;2022-08-18T00:09:02;6.53;;;4.25;;
72785;SDS011;60902;53.876;10.674;2022-08-18T00:09:15;6.57;;;4.25;;
72785;SDS011;60902;53.876;10.674;2022-08-18T00:09:26;6.57;;;4.35;;
72785;SDS011;60902;53.876;10.674;2022-08-18T00:09:37;6.43;;;4.30;;
72785;SDS011;60902;53.876;10.674;2022-08-18T00:09:49;7.05;;;4.32;;
72785;SDS011;60902;53.876;10.674;2022-08-18T00:10:00;6.72;;;4.32;;
72785;SDS011;60902;53.876;10.674;2022-08-18T00:10:14;7.22;;;4.40;;
72785;SDS011;60902;53.876;10.674;2022-08-18T00:10:25;7.00;;;4.30;;
72785;SDS011;60902;53.876;10.674;2022-08-18T00:10:36;6.90;;;4.28;;
72785;SDS011;60902;53.876;10.674;2022-08-18T00:10:50;8.15;;;4.13;;
72785;SDS011;60902;53.876;10.674;2022-08-18T00:11:01;9.15;;;3.90;;
72785;SDS011;60902;53.876;10.674;2022-08-18T00:11:12;8.55;;;3.95;;
72785;SDS011;60902;53.876;10.674;2022-08-18T00:11:24;7.53;;;3.95;;
72785;SDS011;60902;53.876;10.674;2022-08-18T00:11:36;7.80;;;4.47;;
72785;SDS011;60902;53.876;10.674;2022-08-18T00:11:49;7.82;;;4.72;;
72785;SDS011;60902;53.876;10.674;2022-08-18T00:12:02;7.30;;;4.65;;
72785;SDS011;60902;53.876;10.674;2022-08-18T00:12:16;7.30;;;4.35;;
72785;SDS011;60902;53.876;10.674;2022-08-18T00:12:29;8.18;;;4.10;;
72785;SDS011;60902;53.876;10.674;2022-08-18T00:12:44;8.15;;;4.10;;
72785;SDS011;60902;53.876;10.674;2022-08-18T00:12:55;6.97;;;4.28;;
72785;SDS011;60902;53.876;10.674;2022-08-18T00:13:06;7.03;;;4.28;;
72785;SDS011;60902;53.876;10.674;2022-08-18T00:13:18;7.90;;;4.35;;
72785;SDS011;60902;53.876;10.674;2022-08-18T00:13:29;7.40;;;4.30;;
72785;SDS011;60902;53.876;10.674;2022-08-18T00:13:40;6.33;;;4.17;;
72785;SDS011;60902;53.876;10.674;2022-08-18T00:13:51;6.32;;;4.10;;
72785;SDS011;60902;53.876;10.674;2022-08-18T00:14:02;6.57;;;4.00;;
72785;SDS011;60902;53.876;10.674;2022-08-18T00:14:15;6.90;;;4.22;;
72785;SDS011;60902;53.876;10.674;2022-08-18T00:14:28;6.88;;;4.10;;
72785;SDS011;60902;53.876;10.674;2022-08-18T00:14:42;6.57;;;4.20;;
72785;SDS011;60902;53.876;10.674;2022-08-18T00:14:55;6.65;;;4.07;;
72785;SDS011;60902;53.876;10.674;2022-08-18T00:15:12;7.00;;;4.20;;
72785;SDS011;60902;53.876;10.674;2022-08-18T00:15:24;6.63;;;4.45;;
72785;SDS011;60902;53.876;10.674;2022-08-18T00:15:36;7.07;;;4.75;;
72785;SDS011;60902;53.876;10.674;2022-08-18T00:15:47;7.00;;;4.68;;
72785;SDS011;60902;53.876;10.674;2022-08-18T00:15:58;6.55;;;4.53;;
72785;SDS011;60902;53.876;10.674;2022-08-18T00:16:09;6.07;;;4.20;;
72785;SDS011;60902;53.876;10.674;2022-08-18T00:16:20;6.25;;;4.00;;
72785;SDS011;60902;53.876;10.674;2022-08-18T00:16:32;6.45;;;3.90;;
72785;SDS011;60902;53.876;10.674;2022-08-18T00:16:43;6.50;;;3.92;;
72785;SDS011;60902;53.876;10.674;2022-08-18T00:16:55;6.47;;;3.95;;
72785;SDS011;60902;53.876;10.674;2022-08-18T00:17:06;6.50;;;4.00;;
72785;SDS011;60902;53.876;10.674;2022-08-18T00:17:17;6.95;;;4.00;;
72785;SDS011;60902;53.876;10.674;2022-08-18T00:17:30;7.40;;;4.22;;
72785;SDS011;60902;53.876;10.674;2022-08-18T00:17:42;7.20;;;4.15;;
72785;SDS011;60902;53.876;10.674;2022-08-18T00:17:54;6.40;;;3.95;;
72785;SDS011;60902;53.876;10.674;2022-08-18T00:18:05;6.50;;;3.90;;
72785;SDS011;60902;53.876;10.674;2022-08-18T00:18:16;6.20;;;3.95;;
72785;SDS011;60902;53.876;10.674;2022-08-18T00:18:27;5.97;;;3.97;;
72785;SDS011;60902;53.876;10.674;2022-08-18T00:18:38;5.95;;;4.05;;
72785;SDS011;60902;53.876;10.674;2022-08-18T00:18:50;6.70;;;4.00;;
72785;SDS011;60902;53.876;10.674;2022-08-18T00:19:02;7.32;;;4.00;;
72785;SDS011;60902;53.876;10.674;2022-08-18T00:19:13;7.07;;;4.15;;
72785;SDS011;60902;53.876;10.674;2022-08-18T00:19:25;6.70;;;4.10;;
72785;SDS011;60902;53.876;10.674;2022-08-18T00:19:36;6.63;;;3.95;;
72785;SDS011;60902;53.876;10.674;2022-08-18T00:19:47;6.78;;;4.18;;
72785;SDS011;60902;53.876;10.674;2022-08-18T00:19:58;6.72;;;4.15;;
72785;SDS011;60902;53.876;10.674;2022-08-18T00:20:10;5.88;;;4.00;;
72785;SDS011;60902;53.876;10.674;2022-08-18T00:20:23;5.72;;;3.75;;
72785;SDS011;60902;53.876;10.674;2022-08-18T00:20:35;5.95;;;4.00;;
72785;SDS011;60902;53.876;10.674;2022-08-18T00:20:46;5.97;;;4.05;;
72785;SDS011;60902;53.876;10.674;2022-08-18T00:20:57;6.35;;;4.18;;
72785;SDS011;60902;53.876;10.674;2022-08-18T00:21:09;6.10;;;4.03;;
72785;SDS011;60902;53.876;10.674;2022-08-18T00:21:21;6.07;;;3.90;;
72785;SDS011;60902;53.876;10.674;2022-08-18T00:21:32;6.05;;;3.80;;
72785;SDS011;60902;53.876;10.674;2022-08-18T00:21:43;6.47;;;3.90;;
72785;SDS011;60902;53.876;10.674;2022-08-18T00:21:54;6.35;;;4.00;;
72785;SDS011;60902;53.876;10.674;2022-08-18T00:22:06;6.65;;;4.13;;
72785;SDS011;60902;53.876;10.674;2022-08-18T00:22:18;6.35;;;4.03;;
72785;SDS011;60902;53.876;10.674;2022-08-18T00:22:31;6.22;;;3.95;;
72785;SDS011;60902;53.876;10.674;2022-08-18T00:22:44;6.05;;;3.70;;
72785;SDS011;60902;53.876;10.674;2022-08-18T00:22:59;6.10;;;3.75;;
72785;SDS011;60902;53.876;10.674;2022-08-18T00:23:11;6.13;;;3.90;;
72785;SDS011;60902;53.876;10.674;2022-08-18T00:23:22;6.30;;;4.07;;
72785;SDS011;60902;53.876;10.674;2022-08-18T00:23:33;6.47;;;4.00;;
72785;SDS011;60902;53.876;10.674;2022-08-18T00:23:44;6.80;;;4.18;;
72785;SDS011;60902;53.876;10.674;2022-08-18T00:23:55;6.32;;;4.20;;
72785;SDS011;60902;53.876;10.674;2022-08-18T00:24:06;6.15;;;4.18;;
72785;SDS011;60902;53.876;10.674;2022-08-18T00:24:17;6.65;;;4.20;;
72785;SDS011;60902;53.876;10.674;2022-08-18T00:24:29;7.18;;;4.15;;
72785;SDS011;60902;53.876;10.674;2022-08-18T00:24:40;6.82;;;3.85;;
72785;SDS011;60902;53.876;10.674;2022-08-18T00:24:52;6.20;;;3.87;;
72785;SDS011;60902;53.876;10.674;2022-08-18T00:25:04;5.72;;;3.63;;
72785;SDS011;60902;53.876;10.674;2022-08-18T00:25:19;5.93;;;3.72;;
72785;SDS011;60902;53.876;10.674;2022-08-18T00:25:31;6.40;;;4.07;;
72785;SDS011;60902;53.876;10.674;2022-08-18T00:25:42;6.30;;;3.83;;
72785;SDS011;60902;53.876;10.674;2022-08-18T00:25:54;5.95;;;3.53;;
72785;SDS011;60902;53.876;10.674;2022-08-18T00:26:09;6.03;;;3.85;;
72785;SDS011;60902;53.876;10.674;2022-08-18T00:26:20;6.25;;;4.07;;
72785;SDS011;60902;53.876;10.674;2022-08-18T00:26:31;6.13;;;4.20;;
72785;SDS011;60902;53.876;10.674;2022-08-18T00:26:42;6.07;;;4.00;;
72785;SDS011;60902;53.876;10.674;2022-08-18T00:26:53;5.90;;;3.92;;
72785;SDS011;60902;53.876;10.674;2022-08-18T00:27:04;5.95;;;4.13;;
72785;SDS011;60902;53.876;10.674;2022-08-18T00:27:20;5.93;;;3.97;;
72785;SDS011;60902;53.876;10.674;2022-08-18T00:27:33;5.93;;;3.80;;
72785;SDS011;60902;53.876;10.674;2022-08-18T00:27:46;6.20;;;4.03;;
72785;SDS011;60902;53.876;10.674;2022-08-18T00:27:57;6.38;;;4.20;;
72785;SDS011;60902;53.876;10.674;2022-08-18T00:28:08;6.20;;;4.15;;
72785;SDS011;60902;53.876;10.674;2022-08-18T00:28:19;6.20;;;4.20;;
72785;SDS011;60902;53.876;10.674;2022-08-18T00:28:30;6.10;;;4.05;;
72785;SDS011;60902;53.876;10.674;2022-08-18T00:28:41;6.03;;;3.83;;
72785;SDS011;60902;53.876;10.674;2022-08-18T00:28:51;5.80;;;3.60;;
72785;SDS011;60902;53.876;10.674;2022-08-18T00:29:02;5.82;;;3.50;;
72785;SDS011;60902;53.876;10.674;2022-08-18T00:29:13;5.85;;;3.65;;
72785;SDS011;60902;53.876;10.674;2022-08-18T00:29:26;6.47;;;4.03;;
72785;SDS011;60902;53.876;10.674;2022-08-18T00:29:37;6.50;;;3.90;;
72785;SDS011;60902;53.876;10.674;2022-08-18T00:29:47;6.15;;;3.85;;
72785;SDS011;60902;53.876;10.674;2022-08-18T00:29:59;5.90;;;3.78;;
72785;SDS011;60902;53.876;10.674;2022-08-18T00:30:12;5.90;;;3.80;;
72785;SDS011;60902;53.876;10.674;2022-08-18T00:30:25;6.43;;;3.90;;
72785;SDS011;60902;53.876;10.674;2022-08-18T00:30:36;6.15;;;3.75;;
72785;SDS011;60902;53.876;10.674;2022-08-18T00:30:48;6.05;;;3.90;;
72785;SDS011;60902;53.876;10.674;2022-08-18T00:30:59;5.80;;;3.75;;
72785;SDS011;60902;53.876;10.674;2022-08-18T00:31:10;5.90;;;3.95;;
72785;SDS011;60902;53.876;10.674;2022-08-18T00:31:21;6.00;;;3.80;;
72785;SDS011;60902;53.876;10.674;2022-08-18T00:31:32;6.50;;;3.90;;
72785;SDS011;60902;53.876;10.674;2022-08-18T00:31:43;6.50;;;3.95;;
72785;SDS011;60902;53.876;10.674;2022-08-18T00:31:54;6.45;;;3.83;;
72785;SDS011;60902;53.876;10.674;2022-08-18T00:32:12;6.30;;;3.80;;
72785;SDS011;60902;53.876;10.674;2022-08-18T00:32:24;6.03;;;3.80;;
72785;SDS011;60902;53.876;10.674;2022-08-18T00:32:38;6.03;;;3.92;;
72785;SDS011;60902;53.876;10.674;2022-08-18T00:32:52;6.00;;;3.70;;
72785;SDS011;60902;53.876;10.674;2022-08-18T00:33:04;5.85;;;3.53;;
72785;SDS011;60902;53.876;10.674;2022-08-18T00:33:15;5.85;;;3.50;;
72785;SDS011;60902;53.876;10.674;2022-08-18T00:33:26;5.55;;;3.40;;
72785;SDS011;60902;53.876;10.674;2022-08-18T00:33:37;5.50;;;3.25;;
72785;SDS011;60902;53.876;10.674;2022-08-18T00:33:48;5.45;;;3.20;;
72785;SDS011;60902;53.876;10.674;2022-08-18T00:34:00;5.50;;;3.30;;
72785;SDS011;60902;53.876;10.674;2022-08-18T00:34:11;5.60;;;3.55;;
72785;SDS011;60902;53.876;10.674;2022-08-18T00:34:22;5.93;;;3.75;;
72785;SDS011;60902;53.876;10.674;2022-08-18T00:34:33;6.25;;;3.83;;
72785;SDS011;60902;53.876;10.674;2022-08-18T00:34:44;6.17;;;3.80;;
72785;SDS011;60902;53.876;10.674;2022-08-18T00:34:55;6.25;;;3.83;;
72785;SDS011;60902;53.876;10.674;2022-08-18T00:35:07;6.63;;;3.80;;
72785;SDS011;60902;53.876;10.674;2022-08-18T00:35:24;7.07;;;4.20;;
72785;SDS011;60902;53.876;10.674;2022-08-18T00:35:37;6.43;;;4.20;;
72785;SDS011;60902;53.876;10.674;2022-08-18T00:35:49;6.05;;;3.80;;
72785;SDS011;60902;53.876;10.674;2022-08-18T00:36:00;5.57;;;3.60;;
72785;SDS011;60902;53.876;10.674;2022-08-18T00:36:11;5.57;;;3.50;;
72785;SDS011;60902;53.876;10.674;2022-08-18T00:36:23;5.68;;;3.60;;
72785;SDS011;60902;53.876;10.674;2022-08-18T00:36:34;6.10;;;3.70;;
72785;SDS011;60902;53.876;10.674;2022-08-18T00:36:45;6.00;;;3.75;;
72785;SDS011;60902;53.876;10.674;2022-08-18T00:36:59;6.00;;;3.85;;
72785;SDS011;60902;53.876;10.674;2022-08-18T00:37:10;5.95;;;4.10;;
72785;SDS011;60902;53.876;10.674;2022-08-18T00:37:21;5.93;;;4.00;;
72785;SDS011;60902;53.876;10.674;2022-08-18T00:37:32;5.97;;;3.90;;
72785;SDS011;60902;53.876;10.674;2022-08-18T00:37:43;5.93;;;3.97;;
72785;SDS011;60902;53.876;10.674;2022-08-18T00:37:55;6.05;;;4.13;;
72785;SDS011;60902;53.876;10.674;2022-08-18T00:38:08;6.13;;;3.83;;
72785;SDS011;60902;53.876;10.674;2022-08-18T00:38:19;5.93;;;3.65;;
72785;SDS011;60902;53.876;10.674;2022-08-18T00:38:31;5.93;;;3.65;;
72785;SDS011;60902;53.876;10.674;2022-08-18T00:38:42;6.22;;;3.90;;
72785;SDS011;60902;53.876;10.674;2022-08-18T00:38:53;6.25;;;3.85;;
72785;SDS011;60902;53.876;10.674;2022-08-18T00:39:04;6.28;;;3.92;;
72785;SDS011;60902;53.876;10.674;2022-08-18T00:39:15;6.18;;;4.00;;
72785;SDS011;60902;53.876;10.674;2022-08-18T00:39:26;6.15;;;4.07;;
72785;SDS011;60902;53.876;10.674;2022-08-18T00:39:39;6.35;;;3.85;;
72785;SDS011;60902;53.876;10.674;2022-08-18T00:39:50;6.60;;;4.32;;
72785;SDS011;60902;53.876;10.674;2022-08-18T00:40:03;6.32;;;4.32;;
72785;SDS011;60902;53.876;10.674;2022-08-18T00:40:18;5.88;;;4.00;;
72785;SDS011;60902;53.876;10.674;2022-08-18T00:40:33;5.95;;;3.85;;
72785;SDS011;60902;53.876;10.674;2022-08-18T00:40:49;6.75;;;4.15;;
72785;SDS011;60902;53.876;10.674;2022-08-18T00:41:01;6.68;;;4.28;;
72785;SDS011;60902;53.876;10.674;2022-08-18T00:41:12;6.10;;;3.97;;
72785;SDS011;60902;53.876;10.674;2022-08-18T00:41:23;5.80;;;3.65;;
72785;SDS011;60902;53.876;10.674;2022-08-18T00:41:35;5.47;;;3.53;;
72785;SDS011;60902;53.876;10.674;2022-08-18T00:41:48;5.78;;;3.78;;
72785;SDS011;60902;53.876;10.674;2022-08-18T00:41:59;5.65;;;3.78;;
72785;SDS011;60902;53.876;10.674;2022-08-18T00:42:21;6.28;;;3.55;;
72785;SDS011;60902;53.876;10.674;2022-08-18T00:42:36;6.80;;;3.78;;
72785;SDS011;60902;53.876;10.674;2022-08-18T00:42:53;6.40;;;4.10;;
72785;SDS011;60902;53.876;10.674;2022-08-18T00:43:10;6.13;;;4.00;;
72785;SDS011;60902;53.876;10.674;2022-08-18T00:43:28;5.78;;;3.78;;
72785;SDS011;60902;53.876;10.674;2022-08-18T00:43:46;6.05;;;3.78;;
72785;SDS011;60902;53.876;10.674;2022-08-18T00:44:00;6.05;;;3.92;;
72785;SDS011;60902;53.876;10.674;2022-08-18T00:44:13;5.97;;;3.97;;
72785;SDS011;60902;53.876;10.674;2022-08-18T00:44:25;6.20;;;3.88;;
72785;SDS011;60902;53.876;10.674;2022-08-18T00:44:36;6.13;;;3.83;;
72785;SDS011;60902;53.876;10.674;2022-08-18T00:44:47;6.57;;;3.80;;
72785;SDS011;60902;53.876;10.674;2022-08-18T00:45:01;6.50;;;3.85;;
72785;SDS011;60902;53.876;10.674;2022-08-18T00:45:15;6.18;;;3.67;;
72785;SDS011;60902;53.876;10.674;2022-08-18T00:45:29;5.80;;;3.60;;
72785;SDS011;60902;53.876;10.674;2022-08-18T00:45:42;6.10;;;3.85;;
72785;SDS011;60902;53.876;10.674;2022-08-18T00:45:53;6.40;;;4.07;;
72785;SDS011;60902;53.876;10.674;2022-08-18T00:46:05;6.43;;;3.85;;
72785;SDS011;60902;53.876;10.674;2022-08-18T00:46:18;6.63;;;3.83;;
72785;SDS011;60902;53.876;10.674;2022-08-18T00:46:33;6.13;;;3.70;;
72785;SDS011;60902;53.876;10.674;2022-08-18T00:46:45;6.18;;;3.70;;
72785;SDS011;60902;53.876;10.674;2022-08-18T00:46:56;6.75;;;3.83;;
72785;SDS011;60902;53.876;10.674;2022-08-18T00:47:06;7.18;;;4.00;;
72785;SDS011;60902;53.876;10.674;2022-08-18T00:47:18;7.20;;;4.10;;
72785;SDS011;60902;53.876;10.674;2022-08-18T00:47:29;6.90;;;4.00;;
72785;SDS011;60902;53.876;10.674;2022-08-18T00:47:40;5.90;;;3.67;;
72785;SDS011;60902;53.876;10.674;2022-08-18T00:47:52;6.40;;;4.10;;
72785;SDS011;60902;53.876;10.674;2022-08-18T00:48:05;6.32;;;4.32;;
72785;SDS011;60902;53.876;10.674;2022-08-18T00:48:17;5.68;;;3.83;;
72785;SDS011;60902;53.876;10.674;2022-08-18T00:48:28;5.53;;;3.65;;
72785;SDS011;60902;53.876;10.674;2022-08-18T00:48:39;5.90;;;3.55;;
72785;SDS011;60902;53.876;10.674;2022-08-18T00:48:50;5.80;;;3.50;;
72785;SDS011;60902;53.876;10.674;2022-08-18T00:49:01;5.65;;;3.58;;
72785;SDS011;60902;53.876;10.674;2022-08-18T00:49:13;5.63;;;3.90;;
72785;SDS011;60902;53.876;10.674;2022-08-18T00:49:27;6.13;;;3.97;;
72785;SDS011;60902;53.876;10.674;2022-08-18T00:49:38;6.47;;;4.13;;
72785;SDS011;60902;53.876;10.674;2022-08-18T00:49:51;6.03;;;3.80;;
72785;SDS011;60902;53.876;10.674;2022-08-18T00:50:03;5.55;;;3.65;;
72785;SDS011;60902;53.876;10.674;2022-08-18T00:50:16;5.55;;;3.80;;
72785;SDS011;60902;53.876;10.674;2022-08-18T00:50:31;6.05;;;4.10;;
72785;SDS011;60902;53.876;10.674;2022-08-18T00:50:44;6.13;;;4.03;;
72785;SDS011;60902;53.876;10.674;2022-08-18T00:51:00;5.82;;;3.80;;
72785;SDS011;60902;53.876;10.674;2022-08-18T00:51:16;5.82;;;3.65;;
72785;SDS011;60902;53.876;10.674;2022-08-18T00:51:32;5.85;;;3.80;;
72785;SDS011;60902;53.876;10.674;2022-08-18T00:51:48;5.85;;;4.00;;
72785;SDS011;60902;53.876;10.674;2022-08-18T00:52:01;5.65;;;3.80;;
72785;SDS011;60902;53.876;10.674;2022-08-18T00:52:13;5.80;;;3.47;;
72785;SDS011;60902;53.876;10.674;2022-08-18T00:52:25;5.82;;;3.30;;
72785;SDS011;60902;53.876;10.674;2022-08-18T00:52:36;5.78;;;3.40;;
72785;SDS011;60902;53.876;10.674;2022-08-18T00:52:51;5.97;;;3.60;;
72785;SDS011;60902;53.876;10.674;2022-08-18T00:53:06;5.82;;;3.50;;
72785;SDS011;60902;53.876;10.674;2022-08-18T00:53:23;5.70;;;3.70;;
72785;SDS011;60902;53.876;10.674;2022-08-18T00:53:39;6.45;;;3.88;;
72785;SDS011;60902;53.876;10.674;2022-08-18T00:53:56;7.05;;;3.80;;
72785;SDS011;60902;53.876;10.674;2022-08-18T00:54:11;6.70;;;3.83;;
72785;SDS011;60902;53.876;10.674;2022-08-18T00:54:25;6.30;;;3.70;;
72785;SDS011;60902;53.876;10.674;2022-08-18T00:54:39;5.80;;;3.50;;
72785;SDS011;60902;53.876;10.674;2022-08-18T00:54:54;5.38;;;3.60;;
72785;SDS011;60902;53.876;10.674;2022-08-18T00:55:06;5.70;;;3.60;;
72785;SDS011;60902;53.876;10.674;2022-08-18T00:55:17;5.47;;;3.40;;
72785;SDS011;60902;53.876;10.674;2022-08-18T00:55:31;6.15;;;3.70;;
72785;SDS011;60902;53.876;10.674;2022-08-18T00:55:44;6.53;;;4.00;;
72785;SDS011;60902;53.876;10.674;2022-08-18T00:55:58;6.40;;;4.03;;
72785;SDS011;60902;53.876;10.674;2022-08-18T00:56:17;5.80;;;3.38;;
72785;SDS011;60902;53.876;10.674;2022-08-18T00:56:33;5.15;;;3.30;;
72785;SDS011;60902;53.876;10.674;2022-08-18T00:56:48;5.13;;;3.58;;
72785;SDS011;60902;53.876;10.674;2022-08-18T00:57:01;5.57;;;3.78;;
72785;SDS011;60902;53.876;10.674;2022-08-18T00:57:15;5.72;;;3.75;;
72785;SDS011;60902;53.876;10.674;2022-08-18T00:57:30;5.85;;;3.85;;
72785;SDS011;60902;53.876;10.674;2022-08-18T00:57:42;5.90;;;3.85;;
72785;SDS011;60902;53.876;10.674;2022-08-18T00:57:57;5.28;;;3.30;;
72785;SDS011;60902;53.876;10.674;2022-08-18T00:58:14;5.30;;;3.40;;
72785;SDS011;60902;53.876;10.674;2022-08-18T00:58:31;5.82;;;3.83;;
72785;SDS011;60902;53.876;10.674;2022-08-18T00:58:47;5.63;;;3.65;;
72785;SDS011;60902;53.876;10.674;2022-08-18T00:59:05;5.68;;;3.75;;
72785;SDS011;60902;53.876;10.674;2022-08-18T00:59:22;6.35;;;4.07;;
72785;SDS011;60902;53.876;10.674;2022-08-18T00:59:39;6.45;;;4.20;;
72785;SDS011;60902;53.876;10.674;2022-08-18T00:59:56;5.72;;;3.65;;
72785;SDS011;60902;53.876;10.674;2022-08-18T01:00:11;5.80;;;3.38;;
72785;SDS011;60902;53.876;10.674;2022-08-18T01:00:24;6.40;;;3.67;;
72785;SDS011;60902;53.876;10.674;2022-08-18T01:00:35;6.32;;;3.65;;
72785;SDS011;60902;53.876;10.674;2022-08-18T01:00:47;6.20;;;3.70;;
72785;SDS011;60902;53.876;10.674;2022-08-18T01:01:01;6.03;;;3.75;;
72785;SDS011;60902;53.876;10.674;2022-08-18T01:01:14;5.82;;;3.63;;
72785;SDS011;60902;53.876;10.674;2022-08-18T01:01:29;5.80;;;3.70;;
72785;SDS011;60902;53.876;10.674;2022-08-18T01:01:42;5.93;;;3.60;;
72785;SDS011;60902;53.876;10.674;2022-08-18T01:01:56;5.68;;;3.42;;
72785;SDS011;60902;53.876;10.674;2022-08-18T01:02:18;5.65;;;3.40;;
72785;SDS011;60902;53.876;10.674;2022-08-18T01:02:34;5.28;;;3.42;;
72785;SDS011;60902;53.876;10.674;2022-08-18T01:02:50;5.60;;;3.38;;
72785;SDS011;60902;53.876;10.674;2022-08-18T01:03:08;5.90;;;3.33;;
72785;SDS011;60902;53.876;10.674;2022-08-18T01:03:22;6.50;;;3.28;;
72785;SDS011;60902;53.876;10.674;2022-08-18T01:03:33;6.72;;;3.30;;
72785;SDS011;60902;53.876;10.674;2022-08-18T01:03:49;6.47;;;3.50;;
72785;SDS011;60902;53.876;10.674;2022-08-18T01:04:04;6.07;;;3.60;;
72785;SDS011;60902;53.876;10.674;2022-08-18T01:04:21;6.55;;;3.60;;
72785;SDS011;60902;53.876;10.674;2022-08-18T01:04:37;6.07;;;3.40;;
72785;SDS011;60902;53.876;10.674;2022-08-18T01:04:53;5.40;;;3.33;;
72785;SDS011;60902;53.876;10.674;2022-08-18T01:05:08;5.47;;;3.42;;
72785;SDS011;60902;53.876;10.674;2022-08-18T01:05:25;6.32;;;3.40;;
72785;SDS011;60902;53.876;10.674;2022-08-18T01:05:42;6.55;;;3.63;;
72785;SDS011;60902;53.876;10.674;2022-08-18T01:05:59;5.45;;;3.60;;
72785;SDS011;60902;53.876;10.674;2022-08-18T01:06:14;5.43;;;3.20;;
72785;SDS011;60902;53.876;10.674;2022-08-18T01:06:27;5.85;;;3.20;;
72785;SDS011;60902;53.876;10.674;2022-08-18T01:06:44;5.95;;;3.35;;
72785;SDS011;60902;53.876;10.674;2022-08-18T01:07:03;5.65;;;3.42;;
72785;SDS011;60902;53.876;10.674;2022-08-18T01:07:17;5.50;;;3.35;;
72785;SDS011;60902;53.876;10.674;2022-08-18T01:07:33;5.53;;;3.28;;
72785;SDS011;60902;53.876;10.674;2022-08-18T01:07:47;5.65;;;3.30;;
72785;SDS011;60902;53.876;10.674;2022-08-18T01:07:59;5.70;;;3.40;;
72785;SDS011;60902;53.876;10.674;2022-08-18T01:08:11;6.10;;;3.30;;
72785;SDS011;60902;53.876;10.674;2022-08-18T01:08:24;6.18;;;3.40;;
72785;SDS011;60902;53.876;10.674;2022-08-18T01:08:36;6.10;;;3.40;;
72785;SDS011;60902;53.876;10.674;2022-08-18T01:08:49;5.93;;;3.30;;
72785;SDS011;60902;53.876;10.674;2022-08-18T01:09:00;5.80;;;3.53;;
72785;SDS011;60902;53.876;10.674;2022-08-18T01:09:12;6.57;;;3.72;;
72785;SDS011;60902;53.876;10.674;2022-08-18T01:09:23;7.28;;;4.10;;
72785;SDS011;60902;53.876;10.674;2022-08-18T01:09:34;7.22;;;3.70;;
72785;SDS011;60902;53.876;10.674;2022-08-18T01:09:46;6.28;;;3.33;;
72785;SDS011;60902;53.876;10.674;2022-08-18T01:09:57;5.72;;;3.35;;
72785;SDS011;60902;53.876;10.674;2022-08-18T01:10:09;5.88;;;3.70;;
72785;SDS011;60902;53.876;10.674;2022-08-18T01:10:25;5.80;;;3.55;;
72785;SDS011;60902;53.876;10.674;2022-08-18T01:10:36;6.43;;;3.40;;
72785;SDS011;60902;53.876;10.674;2022-08-18T01:10:48;6.80;;;3.50;;
72785;SDS011;60902;53.876;10.674;2022-08-18T01:11:00;6.45;;;3.70;;
72785;SDS011;60902;53.876;10.674;2022-08-18T01:11:12;5.57;;;3.50;;
72785;SDS011;60902;53.876;10.674;2022-08-18T01:11:23;6.05;;;3.33;;
72785;SDS011;60902;53.876;10.674;2022-08-18T01:11:34;6.32;;;3.40;;
72785;SDS011;60902;53.876;10.674;2022-08-18T01:11:47;5.90;;;3.47;;
72785;SDS011;60902;53.876;10.674;2022-08-18T01:12:00;6.20;;;3.45;;
72785;SDS011;60902;53.876;10.674;2022-08-18T01:12:11;5.68;;;3.40;;
72785;SDS011;60902;53.876;10.674;2022-08-18T01:12:22;5.82;;;3.30;;
72785;SDS011;60902;53.876;10.674;2022-08-18T01:12:33;6.28;;;3.47;;
72785;SDS011;60902;53.876;10.674;2022-08-18T01:12:46;6.25;;;3.60;;
72785;SDS011;60902;53.876;10.674;2022-08-18T01:12:58;5.82;;;3.60;;
72785;SDS011;60902;53.876;10.674;2022-08-18T01:13:09;5.70;;;3.40;;
72785;SDS011;60902;53.876;10.674;2022-08-18T01:13:23;5.70;;;3.40;;
72785;SDS011;60902;53.876;10.674;2022-08-18T01:13:36;6.35;;;3.40;;
72785;SDS011;60902;53.876;10.674;2022-08-18T01:13:51;6.40;;;3.72;;
72785;SDS011;60902;53.876;10.674;2022-08-18T01:14:03;6.13;;;3.80;;
72785;SDS011;60902;53.876;10.674;2022-08-18T01:14:14;6.00;;;3.97;;
72785;SDS011;60902;53.876;10.674;2022-08-18T01:14:27;6.32;;;3.65;;
72785;SDS011;60902;53.876;10.674;2022-08-18T01:14:38;6.28;;;3.60;;
72785;SDS011;60902;53.876;10.674;2022-08-18T01:14:49;5.80;;;3.42;;
72785;SDS011;60902;53.876;10.674;2022-08-18T01:15:00;5.10;;;3.20;;
72785;SDS011;60902;53.876;10.674;2022-08-18T01:15:11;5.22;;;3.10;;